Time;durP1;ratioP1;P1;durP2;ratioP2;P2;SDS_P1;SDS_P2;PMS_P1;PMS_P2;Temp;Humidity;BMP_temperature;BMP_pressure;BME280_temperature;BME280_humidity;BME280_pressure;Samples;Min_cycle;Max_cycle;Signal;HPM_P1;HPM_P2
2023/05/17 04:02:33;;;;;;;2.47;2.00;;;6.00;97.30;;;;;;5113981;22;21047;-83
2023/05/17 04:04:58;;;;;;;2.50;1.70;;;6.00;97.30;;;;;;4995127;28;20436;-83
2023/05/17 04:07:24;;;;;;;1.97;1.87;;;6.10;97.30;;;;;;4994166;28;20185;-81
2023/05/17 04:09:49;;;;;;;1.40;1.30;;;6.10;97.30;;;;;;4996406;28;20185;-81
2023/05/17 04:12:15;;;;;;;1.33;1.23;;;6.20;97.30;;;;;;4994672;28;20686;-83
2023/05/17 04:14:40;;;;;;;2.07;1.93;;;6.20;97.30;;;;;;4993654;28;20188;-82
2023/05/17 04:17:06;;;;;;;3.43;1.63;;;6.30;97.30;;;;;;5014699;23;20321;-65
2023/05/17 04:19:32;;;;;;;2.00;1.90;;;6.40;97.30;;;;;;4972626;28;20198;-65
2023/05/17 04:21:58;;;;;;;12.73;3.40;;;6.40;97.30;;;;;;4967410;28;20198;-65
2023/05/17 04:24:24;;;;;;;1.60;1.50;;;6.40;97.30;;;;;;4977153;28;20673;-65
2023/05/17 04:26:49;;;;;;;2.40;1.50;;;6.50;97.30;;;;;;4969302;28;20618;-65
2023/05/17 04:29:15;;;;;;;1.67;1.63;;;6.50;97.30;;;;;;4975569;28;20551;-65
2023/05/17 04:31:41;;;;;;;1.80;1.33;;;6.50;97.30;;;;;;4969907;28;20194;-66
2023/05/17 04:34:07;;;;;;;1.37;1.27;;;6.60;97.30;;;;;;4972407;28;20443;-65
2023/05/17 04:36:32;;;;;;;5.20;2.20;;;6.60;97.30;;;;;;4953145;28;20182;-65
2023/05/17 04:38:58;;;;;;;1.60;1.57;;;6.70;97.30;;;;;;4976396;28;20592;-65
2023/05/17 04:41:23;;;;;;;2.17;2.00;;;6.70;97.30;;;;;;4953125;28;20199;-65
2023/05/17 04:43:49;;;;;;;5.33;2.77;;;6.80;97.30;;;;;;4977229;28;20659;-65
2023/05/17 04:46:15;;;;;;;2.20;1.97;;;6.80;97.30;;;;;;4958525;28;20186;-65
2023/05/17 04:48:41;;;;;;;3.10;1.90;;;6.90;97.30;;;;;;4953795;28;20441;-65
2023/05/17 04:51:06;;;;;;;3.20;2.57;;;6.90;97.30;;;;;;4959807;28;20445;-65
2023/05/17 04:53:32;;;;;;;2.80;2.60;;;7.00;97.30;;;;;;4963613;28;20193;-65
2023/05/17 04:55:58;;;;;;;1.17;1.07;;;7.10;97.30;;;;;;4960453;28;20228;-65
2023/05/17 04:58:24;;;;;;;2.00;1.93;;;7.10;97.30;;;;;;4967271;28;20903;-65
2023/05/17 05:00:50;;;;;;;21.47;1.53;;;7.20;97.30;;;;;;4972609;28;20202;-65
2023/05/17 05:03:16;;;;;;;3.07;1.53;;;7.30;97.30;;;;;;4955999;28;20433;-66
2023/05/17 05:05:42;;;;;;;1.67;1.57;;;7.40;97.30;;;;;;4983769;28;20681;-65
2023/05/17 05:08:08;;;;;;;1.60;1.50;;;7.50;97.30;;;;;;4966892;28;20185;-65
2023/05/17 05:10:34;;;;;;;11.33;2.37;;;7.60;97.30;;;;;;4965843;28;20198;-66
2023/05/17 05:13:00;;;;;;;1.63;1.53;;;7.70;97.30;;;;;;4957711;28;20986;-65
2023/05/17 05:15:25;;;;;;;7.93;1.70;;;7.80;97.30;;;;;;4973532;28;20417;-65
2023/05/17 05:17:51;;;;;;;2.73;2.53;;;7.90;97.30;;;;;;4983066;28;20232;-66
2023/05/17 05:20:16;;;;;;;1.53;1.43;;;8.00;97.30;;;;;;4960415;28;20642;-66
2023/05/17 05:22:42;;;;;;;1.97;1.87;;;8.10;97.30;;;;;;4955029;28;20293;-65
2023/05/17 05:25:08;;;;;;;2.10;1.57;;;8.20;97.30;;;;;;4967552;28;20183;-65
2023/05/17 05:27:34;;;;;;;4.23;2.30;;;8.30;97.30;;;;;;4967022;28;20591;-66
2023/05/17 05:30:00;;;;;;;1.40;1.30;;;8.40;97.30;;;;;;4959400;28;20435;-65
2023/05/17 05:32:25;;;;;;;2.60;1.70;;;8.40;97.30;;;;;;4990204;28;20895;-66
2023/05/17 05:34:51;;;;;;;2.70;2.10;;;8.50;97.30;;;;;;4971648;28;20188;-66
2023/05/17 05:37:18;;;;;;;1.80;1.70;;;8.60;97.30;;;;;;4982205;28;20654;-66
2023/05/17 05:39:44;;;;;;;2.73;1.60;;;8.60;97.30;;;;;;4966179;28;20178;-66
2023/05/17 05:42:10;;;;;;;8.83;2.50;;;8.70;97.30;;;;;;4986260;28;20430;-66
2023/05/17 05:44:35;;;;;;;1.20;1.20;;;8.80;97.30;;;;;;4955949;28;20425;-65
2023/05/17 05:47:01;;;;;;;9.10;3.67;;;8.80;97.30;;;;;;4979662;28;20186;-66
2023/05/17 05:49:26;;;;;;;1.80;1.70;;;8.80;97.30;;;;;;4952474;28;20249;-65
2023/05/17 05:51:52;;;;;;;2.93;2.73;;;8.80;97.30;;;;;;4978025;28;20202;-66
2023/05/17 05:54:17;;;;;;;2.20;1.53;;;8.90;97.30;;;;;;4960254;28;20178;-66
2023/05/17 05:56:43;;;;;;;2.37;2.23;;;8.90;97.30;;;;;;4972958;28;20269;-66
2023/05/17 05:59:08;;;;;;;2.10;1.73;;;9.00;97.30;;;;;;4958234;28;20233;-66
2023/05/17 06:01:34;;;;;;;2.30;2.00;;;9.10;97.30;;;;;;4967564;28;20237;-64
2023/05/17 06:04:00;;;;;;;1.60;1.50;;;9.20;97.30;;;;;;4978450;28;20193;-67
2023/05/17 06:06:25;;;;;;;16.37;3.67;;;9.20;97.30;;;;;;4972105;28;20188;-65
2023/05/17 06:08:50;;;;;;;1.33;1.23;;;9.20;97.30;;;;;;4982638;28;20204;-65
2023/05/17 06:11:17;;;;;;;8.00;1.83;;;9.30;97.30;;;;;;4985043;28;20214;-67
2023/05/17 06:13:43;;;;;;;2.50;2.30;;;9.30;97.30;;;;;;4970574;28;20178;-66
2023/05/17 06:16:08;;;;;;;1.80;1.10;;;9.40;97.30;;;;;;4967762;28;20425;-66
2023/05/17 06:18:34;;;;;;;2.53;1.67;;;9.50;97.30;;;;;;4956829;28;20253;-66
2023/05/17 06:20:59;;;;;;;1.63;1.53;;;9.50;97.30;;;;;;4966700;28;20247;-66
2023/05/17 06:23:25;;;;;;;3.07;2.87;;;9.60;97.30;;;;;;4966396;28;20177;-64
2023/05/17 06:25:51;;;;;;;1.73;1.67;;;9.60;97.30;;;;;;4965294;28;20186;-66
2023/05/17 06:28:16;;;;;;;1.93;1.83;;;9.70;97.30;;;;;;4983416;28;20260;-67
2023/05/17 06:30:42;;;;;;;3.30;2.67;;;9.70;97.30;;;;;;4957788;28;20508;-68
2023/05/17 06:33:08;;;;;;;2.57;2.10;;;9.80;97.30;;;;;;4973608;28;20732;-66
2023/05/17 06:35:34;;;;;;;1.77;1.73;;;9.80;97.30;;;;;;4949880;28;20270;-67
2023/05/17 06:38:00;;;;;;;5.00;2.97;;;9.90;97.30;;;;;;4971321;28;20250;-65
2023/05/17 06:40:26;;;;;;;2.30;2.10;;;10.00;97.30;;;;;;4986404;28;20472;-67
2023/05/17 06:42:51;;;;;;;2.60;2.40;;;10.00;97.30;;;;;;4972897;28;20213;-66
2023/05/17 06:45:17;;;;;;;2.07;1.97;;;10.00;97.30;;;;;;4967322;28;20187;-65
2023/05/17 06:47:42;;;;;;;3.90;2.67;;;10.00;97.30;;;;;;4955175;28;20197;-67
2023/05/17 06:50:09;;;;;;;4.53;2.50;;;10.10;97.30;;;;;;4985789;28;20210;-66
2023/05/17 06:52:35;;;;;;;1.33;1.23;;;10.20;97.30;;;;;;4961813;28;20201;-67
2023/05/17 06:55:00;;;;;;;2.80;2.60;;;10.20;97.30;;;;;;4975064;28;20938;-66
2023/05/17 06:57:26;;;;;;;3.50;2.30;;;10.30;97.30;;;;;;4975232;28;20729;-66
2023/05/17 06:59:51;;;;;;;11.33;3.67;;;10.40;97.30;;;;;;4971956;28;20252;-67
2023/05/17 07:02:17;;;;;;;8.10;2.80;;;10.50;97.30;;;;;;4972920;28;20705;-67
2023/05/17 07:04:43;;;;;;;2.00;1.90;;;10.50;97.30;;;;;;4956540;28;20229;-66
2023/05/17 07:07:08;;;;;;;5.73;1.90;;;10.40;97.30;;;;;;4959699;28;20469;-66
2023/05/17 07:09:34;;;;;;;1.40;1.30;;;10.50;97.30;;;;;;4978674;28;20185;-70
2023/05/17 07:12:00;;;;;;;7.20;2.27;;;10.70;97.30;;;;;;4974683;28;20214;-67
2023/05/17 07:14:25;;;;;;;6.00;3.83;;;10.80;97.30;;;;;;4964410;28;20248;-66
2023/05/17 07:16:51;;;;;;;2.33;2.13;;;11.00;97.30;;;;;;4964449;28;20301;-66
2023/05/17 07:19:16;;;;;;;3.67;1.90;;;11.00;97.10;;;;;;4964302;28;20217;-65
2023/05/17 07:21:42;;;;;;;7.00;1.93;;;11.00;97.30;;;;;;4964399;28;20260;-66
2023/05/17 07:24:08;;;;;;;3.20;2.00;;;11.10;96.90;;;;;;4982015;28;20182;-66
2023/05/17 07:26:33;;;;;;;5.40;2.50;;;11.10;96.40;;;;;;4964487;28;20251;-67
2023/05/17 07:28:59;;;;;;;1.50;1.37;;;11.20;94.60;;;;;;4982327;28;20957;-65
2023/05/17 07:31:25;;;;;;;1.40;1.30;;;11.40;95.10;;;;;;4957745;28;20214;-66
2023/05/17 07:33:51;;;;;;;1.60;1.50;;;11.50;94.50;;;;;;4952816;28;20427;-67
2023/05/17 07:36:16;;;;;;;1.10;1.00;;;11.60;93.90;;;;;;4962881;28;20697;-66
2023/05/17 07:38:42;;;;;;;4.60;1.30;;;11.60;94.80;;;;;;4960684;28;20994;-66
2023/05/17 07:41:08;;;;;;;3.83;1.73;;;11.60;92.90;;;;;;4961216;28;20226;-66
2023/05/17 07:43:36;;;;;;;2.13;1.83;;;11.60;91.70;;;;;;4952891;28;20713;-67
2023/05/17 07:46:02;;;;;;;1.83;1.37;;;11.80;93.80;;;;;;4965951;28;20433;-67
2023/05/17 07:48:28;;;;;;;1.93;1.83;;;11.90;93.10;;;;;;4964612;28;20437;-67
2023/05/17 07:50:53;;;;;;;1.80;1.57;;;12.00;92.00;;;;;;4969702;28;20467;-68
2023/05/17 07:53:19;;;;;;;11.27;4.00;;;11.80;90.70;;;;;;4963489;28;20716;-67
2023/05/17 07:55:44;;;;;;;1.37;1.27;;;11.60;91.20;;;;;;4961393;28;20247;-67
2023/05/17 07:58:13;;;;;;;1.53;1.43;;;11.50;92.30;;;;;;4978033;28;20224;-67
2023/05/17 08:00:41;;;;;;;1.00;0.90;;;11.60;91.90;;;;;;4960978;28;20236;-66
2023/05/17 08:03:07;;;;;;;1.37;1.27;;;11.70;90.90;;;;;;4981493;28;20422;-67
2023/05/17 08:05:32;;;;;;;3.20;1.63;;;11.80;90.70;;;;;;4963886;28;20521;-68
2023/05/17 08:07:59;;;;;;;1.60;1.50;;;11.80;90.90;;;;;;4960538;28;20182;-66
2023/05/17 08:10:27;;;;;;;4.00;2.40;;;11.90;90.70;;;;;;4967313;28;20660;-66
2023/05/17 08:12:53;;;;;;;2.23;1.57;;;12.00;90.90;;;;;;4963737;28;20520;-67
2023/05/17 08:15:19;;;;;;;2.40;2.20;;;12.10;90.50;;;;;;4972048;28;20520;-68
2023/05/17 08:17:44;;;;;;;1.20;1.13;;;12.20;90.30;;;;;;4963496;28;20601;-67
2023/05/17 08:20:10;;;;;;;3.90;1.43;;;12.00;89.70;;;;;;4959237;28;20290;-67
2023/05/17 08:22:35;;;;;;;1.23;1.13;;;12.00;90.10;;;;;;4978220;28;20241;-67
2023/05/17 08:25:02;;;;;;;3.37;1.73;;;11.90;90.70;;;;;;4955110;28;20178;-67
2023/05/17 08:27:29;;;;;;;10.40;2.17;;;11.80;90.00;;;;;;4974803;28;20392;-66
2023/05/17 08:29:58;;;;;;;1.60;1.50;;;11.80;90.40;;;;;;4970772;28;20464;-67
2023/05/17 08:32:24;;;;;;;1.67;1.57;;;11.80;90.80;;;;;;4963957;28;20448;-67
2023/05/17 08:34:49;;;;;;;2.00;1.57;;;11.70;90.80;;;;;;4970900;28;20934;-66
2023/05/17 08:37:15;;;;;;;1.50;1.40;;;11.60;91.50;;;;;;4960371;28;20461;-67
2023/05/17 08:39:40;;;;;;;7.50;3.13;;;11.50;92.30;;;;;;4967931;28;20264;-66
2023/05/17 08:42:07;;;;;;;4.73;2.57;;;11.40;92.20;;;;;;4969746;28;20237;-66
2023/05/17 08:44:32;;;;;;;1.63;1.53;;;11.30;91.40;;;;;;4967724;28;20600;-66
2023/05/17 08:46:59;;;;;;;7.47;2.87;;;11.30;92.30;;;;;;4963494;28;20483;-68
2023/05/17 08:49:27;;;;;;;1.90;1.80;;;11.20;93.00;;;;;;4956921;28;20194;-68
2023/05/17 08:51:54;;;;;;;2.47;1.53;;;11.40;92.60;;;;;;4952083;28;20816;-66
2023/05/17 08:54:21;;;;;;;2.80;1.57;;;11.60;89.90;;;;;;4958003;28;20424;-66
2023/05/17 08:56:50;;;;;;;5.33;1.83;;;12.00;90.90;;;;;;4971618;28;20421;-68
2023/05/17 08:59:17;;;;;;;4.90;2.27;;;12.20;88.10;;;;;;4969781;28;20476;-66
2023/05/17 09:01:45;;;;;;;10.13;2.07;;;12.20;88.30;;;;;;4958390;28;20444;-66
2023/05/17 09:04:11;;;;;;;2.23;1.27;;;12.10;89.30;;;;;;4955218;28;20417;-67
2023/05/17 09:06:37;;;;;;;1.97;1.90;;;12.00;89.20;;;;;;4986963;28;20423;-66
2023/05/17 09:09:06;;;;;;;64.30;3.63;;;11.80;89.10;;;;;;4968927;28;20261;-67
2023/05/17 09:11:32;;;;;;;1.93;1.83;;;11.60;89.50;;;;;;4959376;28;20241;-66
2023/05/17 09:13:59;;;;;;;1.90;1.80;;;11.50;90.20;;;;;;4977454;28;20772;-68
2023/05/17 09:16:27;;;;;;;1.53;1.30;;;11.60;91.20;;;;;;4969187;28;20538;-67
2023/05/17 09:18:54;;;;;;;1.37;1.37;;;11.60;90.30;;;;;;4968806;28;20893;-67
2023/05/17 09:21:21;;;;;;;1.20;1.10;;;11.60;90.30;;;;;;4960017;28;20997;-66
2023/05/17 09:23:47;;;;;;;5.53;3.27;;;11.90;90.10;;;;;;4953231;28;20467;-66
2023/05/17 09:26:12;;;;;;;1.63;1.53;;;12.40;91.00;;;;;;4971267;28;21021;-67
2023/05/17 09:28:39;;;;;;;3.17;2.03;;;12.60;88.70;;;;;;4963144;28;20190;-68
2023/05/17 09:31:09;;;;;;;6.93;2.33;;;12.60;85.40;;;;;;4947618;28;20616;-67
2023/05/17 09:33:47;;;;;;;2.53;2.33;;;12.50;87.00;;;;;;4973285;28;20434;-65
2023/05/17 09:36:19;;;;;;;1.73;1.43;;;12.50;87.10;;;;;;4956448;28;20451;-67
2023/05/17 09:39:00;;;;;;;1.10;1.00;;;12.50;87.40;;;;;;4975170;28;20460;-67
2023/05/17 09:41:45;;;;;;;1.37;1.27;;;12.50;87.70;;;;;;4954876;28;20991;-67
2023/05/17 09:44:11;;;;;;;4.60;2.63;;;12.60;87.80;;;;;;4965532;28;20409;-69
2023/05/17 09:46:46;;;;;;;1.00;1.00;;;12.70;87.40;;;;;;4988280;28;20967;-67
2023/05/17 09:49:12;;;;;;;1.20;1.10;;;12.80;85.70;;;;;;4951669;28;20514;-67
2023/05/17 09:51:42;;;;;;;1.10;1.00;;;12.90;84.70;;;;;;4975949;28;20478;-68
2023/05/17 09:54:12;;;;;;;1.63;1.53;;;12.80;83.70;;;;;;4965050;28;20421;-67
2023/05/17 09:56:38;;;;;;;1.37;1.30;;;12.90;84.40;;;;;;4955188;28;20432;-66
2023/05/17 09:59:10;;;;;;;1.00;1.00;;;13.10;83.20;;;;;;4975583;28;20499;-68
2023/05/17 10:01:40;;;;;;;11.63;4.20;;;13.10;82.40;;;;;;4974265;28;21026;-68
2023/05/17 10:04:08;;;;;;;4.63;1.63;;;13.20;81.40;;;;;;4955049;28;20469;-67
2023/05/17 10:06:43;;;;;;;2.10;1.97;;;13.30;83.00;;;;;;4962775;28;20426;-69
2023/05/17 10:09:12;;;;;;;1.57;1.47;;;13.30;84.10;;;;;;4959646;28;20433;-66
2023/05/17 10:11:38;;;;;;;2.47;2.33;;;13.10;84.30;;;;;;4982838;28;20448;-68
2023/05/17 10:14:32;;;;;;;1.87;1.53;;;12.90;84.90;;;;;;4954518;28;20488;-69
2023/05/17 10:16:59;;;;;;;1.10;1.00;;;12.80;85.20;;;;;;4955505;28;20429;-66
2023/05/17 10:19:25;;;;;;;1.80;1.70;;;12.80;84.40;;;;;;4972522;28;21185;-68
2023/05/17 10:21:52;;;;;;;8.53;2.17;;;12.80;84.60;;;;;;4954112;28;20446;-68
2023/05/17 10:24:20;;;;;;;22.23;4.13;;;13.00;84.80;;;;;;4973319;28;20453;-67
2023/05/17 10:29:15;;;;;;;1.37;1.27;;;13.40;84.10;;;;;;5012550;28;20517;-67
2023/05/17 10:31:44;;;;;;;1.20;1.10;;;13.30;83.70;;;;;;5010219;28;20483;-68
2023/05/17 10:34:10;;;;;;;1.23;1.13;;;13.20;83.90;;;;;;5010145;28;20501;-68
2023/05/17 10:36:36;;;;;;;9.60;2.67;;;13.10;84.30;;;;;;5010139;28;20908;-68
2023/05/17 10:39:06;;;;;;;1.10;1.00;;;12.90;83.30;;;;;;5008681;28;20594;-67
2023/05/17 10:41:33;;;;;;;1.63;1.03;;;12.90;83.80;;;;;;5008361;28;20256;-66
2023/05/17 10:44:02;;;;;;;1.17;1.07;;;12.80;83.50;;;;;;5010172;28;20769;-66
2023/05/17 10:46:29;;;;;;;1.37;1.27;;;12.90;82.70;;;;;;5008505;28;20790;-68
2023/05/17 10:48:59;;;;;;;1.43;1.33;;;13.20;82.00;;;;;;5007834;28;20501;-66
2023/05/17 10:51:33;;;;;;;20.23;2.60;;;13.50;81.50;;;;;;5008338;28;20546;-66
2023/05/17 10:54:06;;;;;;;1.10;1.00;;;13.60;79.90;;;;;;5014684;28;20426;-65
2023/05/17 10:56:33;;;;;;;1.20;1.10;;;13.50;81.40;;;;;;5023862;28;21129;-69
2023/05/17 10:59:20;;;;;;;1.40;1.30;;;13.40;82.60;;;;;;5010201;28;20471;-66
2023/05/17 11:02:02;;;;;;;4.37;2.07;;;13.30;81.80;;;;;;5017877;28;20440;-65
2023/05/17 11:04:33;;;;;;;1.53;1.43;;;13.30;81.80;;;;;;5022562;28;20989;-69
2023/05/17 11:07:17;;;;;;;6.83;2.33;;;13.40;80.60;;;;;;5019518;28;20858;-66
2023/05/17 11:09:45;;;;;;;2.07;1.80;;;13.60;81.40;;;;;;5006174;28;20951;-71
2023/05/17 11:12:15;;;;;;;5.33;1.50;;;13.90;81.20;;;;;;5009760;28;20443;-66
2023/05/17 11:14:44;;;;;;;3.50;1.73;;;14.20;80.50;;;;;;5008153;28;20456;-67
2023/05/17 11:17:18;;;;;;;1.30;1.20;;;14.10;79.80;;;;;;5011278;28;20495;-68
2023/05/17 11:20:08;;;;;;;1.10;1.10;;;14.00;80.60;;;;;;5008846;28;20459;-65
2023/05/17 11:22:36;;;;;;;4.80;1.40;;;13.80;81.30;;;;;;5024237;28;20422;-65
2023/05/17 11:25:07;;;;;;;1.20;1.10;;;13.70;81.70;;;;;;5020937;28;20539;-66
2023/05/17 11:27:47;;;;;;;1.10;1.00;;;13.80;80.30;;;;;;5012823;28;20498;-67
2023/05/17 11:30:30;;;;;;;1.20;1.20;;;13.90;80.30;;;;;;5007061;28;20427;-66
2023/05/17 11:32:59;;;;;;;1.60;1.50;;;14.10;79.30;;;;;;5025737;28;20418;-65
2023/05/17 11:35:31;;;;;;;4.60;2.13;;;14.50;79.50;;;;;;5016259;28;20467;-64
2023/05/17 11:38:15;;;;;;;1.93;1.77;;;14.70;77.50;;;;;;5009847;28;20459;-67
2023/05/17 11:40:42;;;;;;;1.07;0.97;;;15.00;78.50;;;;;;5008650;28;20934;-73
2023/05/17 11:43:18;;;;;;;1.30;1.20;;;15.00;78.40;;;;;;5021504;28;20423;-65
2023/05/17 11:45:47;;;;;;;1.20;1.10;;;14.80;78.40;;;;;;5018499;28;20797;-66
2023/05/17 11:48:13;;;;;;;1.97;1.87;;;14.80;77.10;;;;;;5000640;28;20428;-66
2023/05/17 11:50:40;;;;;;;1.47;1.37;;;14.60;77.70;;;;;;5009476;28;20465;-64
2023/05/17 11:53:07;;;;;;;2.80;1.50;;;14.40;78.00;;;;;;5011126;28;20442;-64
2023/05/17 11:55:38;;;;;;;1.83;1.70;;;14.50;79.30;;;;;;5015531;28;20506;-67
2023/05/17 11:58:07;;;;;;;2.60;1.20;;;14.50;80.00;;;;;;5016407;28;20474;-66
2023/05/17 12:00:33;;;;;;;1.73;1.57;;;14.20;79.10;;;;;;5026568;28;20455;-66
2023/05/17 12:03:24;;;;;;;1.10;1.00;;;14.20;79.80;;;;;;5006234;28;20429;-63
2023/05/17 12:05:59;;;;;;;1.10;1.10;;;14.50;77.60;;;;;;5011291;28;20435;-67
2023/05/17 12:08:25;;;;;;;3.77;2.40;;;14.70;77.50;;;;;;5027746;28;20505;-71
2023/05/17 12:10:51;;;;;;;4.47;4.17;;;14.80;79.00;;;;;;5009313;28;20518;-64
2023/05/17 12:13:20;;;;;;;1.13;1.03;;;14.50;77.80;;;;;;5011065;28;20749;-66
2023/05/17 12:16:00;;;;;;;2.30;2.10;;;14.30;78.80;;;;;;5006250;28;20191;-67
2023/05/17 12:18:41;;;;;;;1.17;1.07;;;14.50;77.80;;;;;;5016455;28;20513;-65
2023/05/17 12:21:09;;;;;;;1.40;1.30;;;14.60;78.00;;;;;;5007664;28;21106;-66
2023/05/17 12:23:37;;;;;;;1.20;1.10;;;14.50;77.70;;;;;;5017295;28;20776;-66
2023/05/17 12:26:16;;;;;;;1.90;1.53;;;14.30;78.40;;;;;;5007101;28;20412;-66
2023/05/17 12:28:51;;;;;;;1.80;1.53;;;14.30;77.70;;;;;;5004200;28;20970;-68
2023/05/17 12:31:23;;;;;;;4.13;2.43;;;14.40;78.80;;;;;;5010797;28;20435;-65
2023/05/17 12:33:49;;;;;;;4.20;1.77;;;14.30;79.50;;;;;;5007414;28;20482;-69
2023/05/17 12:36:15;;;;;;;1.17;1.10;;;14.10;79.70;;;;;;5006257;28;20448;-68
2023/05/17 12:38:42;;;;;;;1.40;1.30;;;14.20;79.50;;;;;;5005877;28;20731;-64
2023/05/17 12:41:11;;;;;;;4.00;1.60;;;14.60;79.90;;;;;;5022920;28;20820;-64
2023/05/17 12:43:38;;;;;;;1.00;0.90;;;14.90;77.20;;;;;;5006810;28;20432;-64
2023/05/17 12:46:08;;;;;;;8.60;3.20;;;14.90;75.30;;;;;;5004326;28;20511;-63
2023/05/17 12:48:38;;;;;;;1.63;1.27;;;15.10;76.10;;;;;;5005830;28;20448;-68
2023/05/17 12:51:19;;;;;;;1.63;1.10;;;15.40;77.10;;;;;;5005504;28;20443;-67
2023/05/17 12:53:49;;;;;;;8.53;2.23;;;15.50;76.40;;;;;;5004400;28;20424;-69
2023/05/17 12:56:17;;;;;;;1.10;1.00;;;15.50;75.60;;;;;;5022413;28;20944;-66
2023/05/17 12:58:43;;;;;;;18.37;1.93;;;15.50;78.20;;;;;;5019174;28;20514;-66
2023/05/17 13:01:13;;;;;;;3.37;1.37;;;15.70;77.70;;;;;;5004121;28;20443;-66
2023/05/17 13:03:40;;;;;;;8.03;1.70;;;15.90;77.10;;;;;;5007181;28;20440;-66
2023/05/17 13:06:08;;;;;;;2.33;2.03;;;15.90;76.00;;;;;;5001040;28;20777;-67
2023/05/17 13:08:34;;;;;;;8.20;2.33;;;15.90;76.20;;;;;;5006189;28;20972;-66
2023/05/17 13:11:08;;;;;;;3.33;1.50;;;15.70;76.00;;;;;;5005678;28;20531;-65
2023/05/17 13:13:33;;;;;;;1.00;0.90;;;15.80;74.90;;;;;;5018163;28;20431;-65
2023/05/17 13:15:59;;;;;;;1.77;1.40;;;16.00;75.30;;;;;;5014786;28;20421;-66
2023/05/17 13:18:24;;;;;;;3.53;1.83;;;16.30;74.80;;;;;;5012053;28;20221;-73
2023/05/17 13:20:53;;;;;;;1.40;1.30;;;16.60;75.10;;;;;;5012553;28;20227;-68
2023/05/17 13:23:19;;;;;;;2.97;1.73;;;16.60;73.30;;;;;;5012742;28;20180;-66
2023/05/17 13:25:44;;;;;;;1.83;1.73;;;16.60;72.20;;;;;;5020746;28;20482;-68
2023/05/17 13:28:10;;;;;;;1.63;1.00;;;16.60;72.50;;;;;;5007373;28;20232;-66
2023/05/17 13:30:35;;;;;;;2.90;2.17;;;16.50;73.70;;;;;;5011325;28;20197;-66
2023/05/17 13:33:01;;;;;;;1.70;1.60;;;16.60;74.30;;;;;;5017544;28;20188;-71
2023/05/17 13:35:26;;;;;;;1.33;1.20;;;16.70;73.10;;;;;;5010977;28;20262;-70
2023/05/17 13:37:56;;;;;;;1.20;1.10;;;16.70;73.90;;;;;;5025571;28;20240;-72
2023/05/17 13:40:22;;;;;;;1.00;0.90;;;16.90;73.70;;;;;;5008589;28;20180;-68
2023/05/17 13:42:47;;;;;;;1.57;1.30;;;17.20;74.30;;;;;;5009537;28;20420;-68
2023/05/17 13:45:13;;;;;;;1.30;1.20;;;17.40;73.00;;;;;;5006618;28;20174;-68
2023/05/17 13:47:38;;;;;;;1.57;1.47;;;17.50;72.20;;;;;;5015980;28;20553;-68
2023/05/17 13:50:05;;;;;;;1.10;1.00;;;17.40;72.30;;;;;;5010003;28;20235;-67
2023/05/17 13:52:30;;;;;;;4.00;1.93;;;17.40;70.70;;;;;;5020512;28;20332;-68
2023/05/17 13:54:56;;;;;;;1.90;1.73;;;17.40;71.20;;;;;;5006305;28;20463;-67
2023/05/17 13:57:22;;;;;;;2.27;1.43;;;17.50;71.80;;;;;;5006314;28;20185;-68
2023/05/17 13:59:47;;;;;;;3.23;1.47;;;17.40;72.00;;;;;;5008409;28;20514;-71
2023/05/17 14:02:13;;;;;;;2.93;2.00;;;17.40;71.70;;;;;;5010557;28;20193;-74
2023/05/17 14:04:39;;;;;;;6.53;1.20;;;17.40;70.80;;;;;;5015365;28;20180;-70
2023/05/17 14:07:04;;;;;;;2.00;1.93;;;17.40;72.10;;;;;;5012484;28;20272;-69
2023/05/17 14:09:32;;;;;;;19.80;1.80;;;17.50;71.00;;;;;;5015128;28;20503;-69
2023/05/17 14:11:59;;;;;;;1.77;1.73;;;17.80;71.10;;;;;;5018380;28;20456;-66
2023/05/17 14:14:26;;;;;;;7.60;2.17;;;17.70;70.80;;;;;;5008862;28;20427;-68
2023/05/17 14:16:53;;;;;;;2.93;2.33;;;17.50;71.70;;;;;;5010296;28;20510;-70
2023/05/17 14:19:18;;;;;;;2.80;2.00;;;17.10;71.90;;;;;;5002230;28;20495;-68
2023/05/17 14:21:44;;;;;;;1.70;1.23;;;17.00;72.00;;;;;;5017055;28;20532;-69
2023/05/17 14:24:10;;;;;;;1.53;1.47;;;17.10;71.80;;;;;;5009766;28;20176;-68
2023/05/17 14:26:36;;;;;;;2.43;1.80;;;17.30;72.00;;;;;;5010278;28;20684;-70
2023/05/17 14:29:01;;;;;;;1.50;1.40;;;17.70;71.20;;;;;;5018238;28;20383;-72
2023/05/17 14:31:28;;;;;;;4.93;1.57;;;17.60;70.10;;;;;;5009182;28;20668;-68
2023/05/17 14:33:54;;;;;;;1.50;1.43;;;17.60;71.20;;;;;;5008472;28;20342;-73
2023/05/17 14:36:20;;;;;;;1.87;1.77;;;17.80;72.20;;;;;;5005746;28;20490;-70
2023/05/17 14:38:45;;;;;;;1.77;1.20;;;18.00;71.20;;;;;;5014570;28;20255;-69
2023/05/17 14:41:11;;;;;;;1.17;1.07;;;18.30;71.60;;;;;;5016521;28;20497;-69
2023/05/17 14:43:36;;;;;;;1.90;1.63;;;18.50;71.10;;;;;;5016020;28;20211;-69
2023/05/17 14:46:02;;;;;;;1.17;1.17;;;18.40;70.20;;;;;;5016485;28;20649;-67
2023/05/17 14:48:29;;;;;;;1.63;1.53;;;18.40;69.30;;;;;;5018067;28;20186;-68
2023/05/17 14:50:55;;;;;;;3.00;1.97;;;18.30;69.30;;;;;;5016098;28;20458;-67
2023/05/17 14:53:22;;;;;;;6.33;1.50;;;18.20;69.20;;;;;;5009542;28;20786;-69
2023/05/17 14:55:48;;;;;;;1.20;1.10;;;18.00;69.40;;;;;;5023702;28;20189;-71
2023/05/17 14:58:14;;;;;;;2.00;1.90;;;18.10;69.90;;;;;;5010176;28;20459;-70
2023/05/17 15:00:43;;;;;;;3.47;1.30;;;18.40;70.30;;;;;;5016139;28;20444;-70
2023/05/17 15:03:09;;;;;;;15.07;2.20;;;18.60;68.80;;;;;;5009015;28;20276;-69
2023/05/17 15:05:34;;;;;;;3.70;2.20;;;18.40;69.50;;;;;;5007820;28;20510;-68
2023/05/17 15:08:00;;;;;;;1.27;1.10;;;18.30;69.20;;;;;;5008875;28;20691;-72
2023/05/17 15:10:25;;;;;;;1.77;1.67;;;17.90;70.00;;;;;;5007370;28;20220;-73
2023/05/17 15:12:51;;;;;;;1.20;1.10;;;18.00;70.30;;;;;;5009203;28;20177;-70
2023/05/17 15:15:19;;;;;;;3.33;1.57;;;18.20;70.40;;;;;;5008840;28;20185;-68
2023/05/17 15:17:44;;;;;;;2.07;1.93;;;18.50;68.80;;;;;;5009073;28;20507;-70
2023/05/17 15:20:10;;;;;;;1.47;1.20;;;18.70;68.10;;;;;;5008828;28;20495;-72
2023/05/17 15:22:36;;;;;;;3.47;1.00;;;19.00;67.80;;;;;;5020913;28;20559;-69
2023/05/17 15:25:02;;;;;;;1.63;1.20;;;19.10;67.90;;;;;;5026926;28;20644;-71
2023/05/17 15:27:27;;;;;;;3.47;1.63;;;19.30;68.50;;;;;;5028580;28;20777;-68
2023/05/17 15:29:53;;;;;;;3.20;1.50;;;19.40;67.80;;;;;;5012382;28;20185;-72
2023/05/17 15:32:18;;;;;;;3.03;2.07;;;19.50;67.80;;;;;;5010690;28;20210;-70
2023/05/17 15:34:44;;;;;;;1.57;1.30;;;19.20;67.90;;;;;;5026491;28;20671;-71
2023/05/17 15:37:09;;;;;;;12.70;1.53;;;18.70;67.10;;;;;;5019284;28;20176;-71
2023/05/17 15:39:35;;;;;;;1.30;1.20;;;18.50;68.50;;;;;;5028905;28;20285;-71
2023/05/17 15:42:01;;;;;;;4.33;1.40;;;18.50;69.40;;;;;;5026726;28;20219;-71
2023/05/17 15:44:26;;;;;;;1.00;0.90;;;18.70;68.50;;;;;;5008115;28;20181;-73
2023/05/17 15:46:52;;;;;;;1.77;1.40;;;19.00;69.20;;;;;;5017476;28;20805;-74
2023/05/17 15:49:17;;;;;;;1.20;1.10;;;19.20;67.20;;;;;;5010860;28;20211;-71
2023/05/17 15:51:43;;;;;;;6.00;1.50;;;19.10;67.60;;;;;;5014319;28;20695;-69
2023/05/17 15:54:08;;;;;;;1.20;1.10;;;18.90;67.70;;;;;;5007670;28;20695;-69
2023/05/17 15:56:37;;;;;;;3.13;1.43;;;18.70;67.80;;;;;;5009033;28;20243;-71
2023/05/17 15:59:03;;;;;;;1.33;1.23;;;18.50;68.30;;;;;;5004153;28;20202;-69
2023/05/17 16:01:28;;;;;;;1.23;1.13;;;18.30;68.10;;;;;;5017248;28;20450;-72
2023/05/17 16:03:54;;;;;;;1.17;1.07;;;18.10;68.70;;;;;;5019066;28;20786;-69
2023/05/17 16:06:20;;;;;;;7.50;0.90;;;17.90;69.80;;;;;;5021874;28;20724;-71
2023/05/17 16:08:46;;;;;;;2.37;1.83;;;18.00;69.80;;;;;;5009388;28;20216;-69
2023/05/17 16:11:12;;;;;;;1.53;1.47;;;18.10;70.60;;;;;;5015342;28;20494;-71
2023/05/17 16:13:37;;;;;;;3.90;2.83;;;18.30;69.80;;;;;;5007985;28;20188;-70
2023/05/17 16:16:03;;;;;;;1.87;1.70;;;18.30;69.30;;;;;;5000534;28;20587;-76
2023/05/17 16:18:30;;;;;;;1.10;1.00;;;18.20;68.80;;;;;;4999780;28;20209;-79
2023/05/17 16:21:02;;;;;;;1.43;1.40;;;18.10;68.70;;;;;;4994291;28;20441;-70
2023/05/17 16:23:28;;;;;;;1.50;1.40;;;18.00;68.70;;;;;;4996608;28;20422;-70
2023/05/17 16:25:55;;;;;;;1.97;1.53;;;18.00;69.70;;;;;;4997341;28;20801;-70
2023/05/17 16:28:21;;;;;;;1.37;1.27;;;18.10;69.30;;;;;;5024369;23;20232;-80
2023/05/17 16:30:48;;;;;;;1.07;1.07;;;18.10;69.10;;;;;;4984569;28;20466;-83
2023/05/17 16:33:14;;;;;;;3.70;1.27;;;18.10;67.80;;;;;;4996056;28;20426;-82
2023/05/17 16:35:40;;;;;;;2.77;2.37;;;18.00;68.20;;;;;;5006604;28;20413;-83
2023/05/17 16:38:06;;;;;;;0.83;0.83;;;17.70;68.00;;;;;;4994709;28;20470;-82
2023/05/17 16:40:31;;;;;;;1.10;1.00;;;17.60;68.30;;;;;;5010172;28;20922;-80
2023/05/17 16:42:57;;;;;;;1.13;0.90;;;17.40;68.40;;;;;;5018588;28;20184;-80
2023/05/17 16:45:22;;;;;;;1.40;1.30;;;17.40;69.30;;;;;;5010991;28;20659;-82
2023/05/17 16:47:48;;;;;;;1.60;1.43;;;17.30;68.90;;;;;;4988369;28;20409;-83
2023/05/17 16:50:13;;;;;;;1.30;1.20;;;17.40;69.60;;;;;;5013977;28;20281;-83
2023/05/17 16:52:39;;;;;;;1.53;1.30;;;17.40;70.00;;;;;;4996581;28;20185;-80